Whaleyville, Virginia
Current Conditions -  °F | °C
As of 6:55 PM on Wednesday 26 Nov 2014 (Local Time) from KFKN Reporting Station
Overcast Overcast  
Wind Chill: 31°   Ceiling: 1300
Heat Index: 37°   Visibility: 10mi
Dew Point: 37°   Wind: 8mph
Humidity: 100%   Direction: 310°NW
Pressure: 29.98"   Gusts: NA
Location:  36.58°N, 76.6932°W
Report Text: KFKN 262355Z AUTO 31007KT 10SM BKN013 OVC041 03/03 A2998 RMK AO1
Loading
Personal Weather Stations






























Interactive Weather Map New forecast layout! Learn more

10-Day Weather Forecast

Advertisements
Track Severe Weather on mobile